Terminal Aerodrome Forecast
Issued by NWS

Home | Current Version | Previous Version | Text Only | Print | Product List | Glossary On
Versions: 1 2 3 4 5 6 7 8 9 10 11 12
000
FTUS44 KTSA 161120
TAFBVO
TAF
KBVO 161120Z 1612/1712 19005KT P6SM SKC
     FM161600 19014G22KT P6SM SCT150
     FM170000 17010KT P6SM BKN050
     FM170600 17008KT P6SM VCSH BKN025 OVC040
     FM170800 17008KT 5SM -RA BR OVC015=

USA.gov is the U.S. government's official web portal to all federal, state and local government web resources and services.